createdAt,value
2022-10-02T00:01:12.757Z,100.00
2022-10-02T00:06:22.409Z,100.00
2022-10-02T00:11:27.502Z,100.00
2022-10-02T00:16:48.412Z,100.00
2022-10-02T00:21:59.251Z,100.00
2022-10-02T00:27:04.939Z,100.00
2022-10-02T00:32:27.201Z,100.00
2022-10-02T00:37:41.117Z,100.00
2022-10-02T00:43:05.801Z,100.00
2022-10-02T00:48:19.748Z,100.00
2022-10-02T00:53:41.849Z,100.00
2022-10-02T00:59:11.896Z,100.00
2022-10-02T01:04:18.393Z,100.00
2022-10-02T01:09:22.834Z,100.00
2022-10-02T01:14:41.750Z,100.00
2022-10-02T01:19:45.928Z,100.00
2022-10-02T01:24:54.677Z,100.00
2022-10-02T01:30:07.510Z,100.00
2022-10-02T01:35:12.435Z,100.00
2022-10-02T01:40:26.237Z,100.00
2022-10-02T01:45:53.852Z,100.00
2022-10-02T01:51:04.371Z,100.00
2022-10-02T01:56:16.367Z,100.00
2022-10-02T02:01:25.313Z,100.00
2022-10-02T02:06:35.200Z,100.00
2022-10-02T02:11:41.473Z,100.00
2022-10-02T02:16:51.764Z,100.00
2022-10-02T02:22:10.067Z,100.00
2022-10-02T02:27:18.066Z,100.00
2022-10-02T02:32:23.709Z,100.00
2022-10-02T02:37:26.718Z,100.00
2022-10-02T02:42:32.502Z,100.00
2022-10-02T02:47:44.392Z,100.00
2022-10-02T02:52:55.604Z,100.00
2022-10-02T02:58:07.227Z,100.00
2022-10-02T03:03:11.472Z,100.00
2022-10-02T03:08:36.534Z,100.00
2022-10-02T03:13:49.510Z,100.00
2022-10-02T03:19:01.388Z,100.00
2022-10-02T03:24:05.683Z,100.00
2022-10-02T03:29:18.977Z,100.00
2022-10-02T03:34:20.991Z,100.00
2022-10-02T03:39:31.058Z,100.00
2022-10-02T03:44:38.840Z,100.00
2022-10-02T03:49:46.424Z,100.00
2022-10-02T03:54:53.666Z,100.00
2022-10-02T04:00:08.775Z,100.00
2022-10-02T04:05:35.685Z,100.00
2022-10-02T04:10:46.764Z,100.00
2022-10-02T04:16:07.283Z,100.00
2022-10-02T04:21:17.908Z,100.00
2022-10-02T04:26:27.479Z,100.00
2022-10-02T04:31:31.609Z,100.00
2022-10-02T04:37:03.845Z,100.00
2022-10-02T04:42:27.273Z,100.00
2022-10-02T04:47:59.471Z,100.00
2022-10-02T04:53:14.809Z,100.00
2022-10-02T04:58:46.653Z,100.00
2022-10-02T05:04:22.567Z,100.00
2022-10-02T05:09:40.164Z,100.00
2022-10-02T05:15:23.267Z,100.00
2022-10-02T05:20:32.868Z,100.00
2022-10-02T05:25:37.537Z,100.00
2022-10-02T05:30:49.518Z,100.00
2022-10-02T05:36:12.204Z,100.00
2022-10-02T05:41:21.976Z,100.00
2022-10-02T05:46:34.635Z,100.00
2022-10-02T05:52:16.892Z,100.00
2022-10-02T05:57:32.978Z,100.00
2022-10-02T06:02:46.145Z,100.00
2022-10-02T06:07:53.189Z,100.00
2022-10-02T06:13:11.408Z,100.00
2022-10-02T06:18:19.737Z,100.00
2022-10-02T06:23:28.153Z,100.00
2022-10-02T06:28:46.738Z,100.00
2022-10-02T06:33:48.394Z,100.00
2022-10-02T06:38:59.083Z,100.00
2022-10-02T06:44:19.168Z,100.00
2022-10-02T06:49:40.948Z,100.00
2022-10-02T06:55:40.834Z,100.00
2022-10-02T07:00:54.052Z,100.00
2022-10-02T07:06:01.368Z,100.00
2022-10-02T07:11:21.968Z,100.00
2022-10-02T07:16:38.663Z,100.00
2022-10-02T07:21:43.434Z,100.00
2022-10-02T07:26:49.845Z,100.00
2022-10-02T07:32:10.967Z,100.00
2022-10-02T07:37:22.181Z,100.00
2022-10-02T07:42:32.148Z,100.00
2022-10-02T07:47:48.964Z,100.00
2022-10-02T07:53:12.297Z,100.00
2022-10-02T07:58:18.887Z,100.00
2022-10-02T08:03:26.039Z,100.00
2022-10-02T08:08:38.745Z,100.00
2022-10-02T08:13:52.804Z,100.00
2022-10-02T08:19:37.156Z,100.00
2022-10-02T08:25:04.433Z,100.00
2022-10-02T08:30:11.717Z,100.00
2022-10-02T08:35:19.139Z,100.00
2022-10-02T08:40:23.112Z,100.00
2022-10-02T08:46:02.560Z,100.00
2022-10-02T08:51:11.438Z,100.00
2022-10-02T08:56:30.822Z,100.00
2022-10-02T09:01:43.613Z,100.00
2022-10-02T09:07:10.308Z,100.00
2022-10-02T09:13:14.639Z,100.00
2022-10-02T09:18:31.989Z,100.00
2022-10-02T09:24:11.329Z,100.00
2022-10-02T09:29:34.613Z,100.00
2022-10-02T09:35:02.155Z,100.00
2022-10-02T09:40:32.572Z,100.00
2022-10-02T09:45:56.249Z,100.00
2022-10-02T09:51:36.916Z,100.00
2022-10-02T09:57:11.613Z,100.00
2022-10-02T10:02:47.967Z,100.00
2022-10-02T10:08:11.870Z,100.00
2022-10-02T10:13:20.414Z,100.00
2022-10-02T10:19:02.419Z,100.00
2022-10-02T10:24:34.848Z,100.00
2022-10-02T10:29:53.631Z,100.00
2022-10-02T10:34:55.255Z,100.00
2022-10-02T10:40:23.984Z,100.00
2022-10-02T10:46:02.543Z,100.00
2022-10-02T10:51:30.669Z,100.00
2022-10-02T10:56:38.518Z,94.88
2022-10-02T11:02:18.011Z,93.80
2022-10-02T11:07:47.767Z,94.11
2022-10-02T11:13:12.550Z,92.17
2022-10-02T11:18:31.499Z,89.26
2022-10-02T11:23:54.167Z,88.48
2022-10-02T11:29:34.707Z,89.03
2022-10-02T11:34:55.472Z,90.91
2022-10-02T11:40:21.545Z,84.49
2022-10-02T11:46:21.597Z,83.17
2022-10-02T11:51:39.366Z,78.50
2022-10-02T11:57:07.455Z,75.79
2022-10-02T12:02:36.211Z,74.67
2022-10-02T12:07:56.423Z,72.84
2022-10-02T12:13:16.384Z,69.13
2022-10-02T12:18:39.723Z,66.12
2022-10-02T12:24:25.692Z,63.39
2022-10-02T12:29:41.902Z,62.94
2022-10-02T12:34:56.330Z,64.23
2022-10-02T12:40:35.139Z,62.69
2022-10-02T12:46:07.965Z,62.92
2022-10-02T12:51:35.409Z,60.40
2022-10-02T12:56:55.597Z,58.19
2022-10-02T13:02:59.978Z,56.05
2022-10-02T13:08:19.952Z,55.75
2022-10-02T13:13:59.417Z,58.74
2022-10-02T13:19:30.480Z,50.73
2022-10-02T13:24:43.580Z,50.76
2022-10-02T13:30:23.027Z,47.92
2022-10-02T13:35:30.733Z,48.04
2022-10-02T13:40:44.887Z,45.23
2022-10-02T13:46:13.430Z,45.27
2022-10-02T13:51:34.344Z,47.48
2022-10-02T13:56:48.715Z,47.73
2022-10-02T14:02:16.727Z,48.65
2022-10-02T14:07:25.703Z,51.97
2022-10-02T14:12:39.969Z,54.58
2022-10-02T14:17:53.753Z,57.17
2022-10-02T14:23:15.274Z,60.06
2022-10-02T14:28:37.730Z,60.83
2022-10-02T14:34:03.510Z,58.00
2022-10-02T14:39:27.952Z,59.36
2022-10-02T14:44:44.626Z,61.29
2022-10-02T14:50:03.858Z,60.42
2022-10-02T14:56:01.372Z,60.16
2022-10-02T15:01:21.495Z,55.71
2022-10-02T15:06:51.727Z,56.20
2022-10-02T15:12:10.097Z,57.17
2022-10-02T15:17:51.126Z,59.23
2022-10-02T15:23:03.221Z,61.03
2022-10-02T15:28:36.228Z,62.08
2022-10-02T15:34:14.091Z,63.78
2022-10-02T15:39:41.910Z,64.91
2022-10-02T15:44:52.515Z,65.65
2022-10-02T15:50:20.871Z,66.43
2022-10-02T15:55:38.729Z,67.46
2022-10-02T16:01:24.515Z,67.44
2022-10-02T16:07:04.994Z,68.88
2022-10-02T16:12:32.409Z,69.24
2022-10-02T16:17:43.034Z,70.57
2022-10-02T16:22:58.618Z,71.83
2022-10-02T16:28:39.446Z,72.20
2022-10-02T16:34:02.429Z,73.30
2022-10-02T16:39:16.331Z,74.01
2022-10-02T16:44:44.565Z,74.38
2022-10-02T16:50:11.083Z,74.84
2022-10-02T16:55:44.034Z,76.52
2022-10-02T17:00:57.495Z,77.12
2022-10-02T17:06:05.528Z,76.91
2022-10-02T17:11:11.965Z,78.71
2022-10-02T17:16:21.631Z,78.73
2022-10-02T17:21:37.710Z,79.06
2022-10-02T17:26:47.191Z,80.35
2022-10-02T17:31:58.646Z,80.46
2022-10-02T17:37:03.865Z,80.47
2022-10-02T17:42:41.274Z,81.54
2022-10-02T17:47:58.534Z,82.18
2022-10-02T17:53:51.996Z,83.12
2022-10-02T17:59:21.059Z,83.37
2022-10-02T18:04:48.023Z,84.05
2022-10-02T18:10:13.213Z,84.88
2022-10-02T18:15:26.131Z,84.66
2022-10-02T18:20:35.510Z,85.26
2022-10-02T18:26:03.131Z,85.70
2022-10-02T18:31:55.132Z,86.49
2022-10-02T18:37:43.081Z,86.66
2022-10-02T18:43:15.635Z,86.80
2022-10-02T18:48:42.560Z,87.36
2022-10-02T18:53:53.882Z,87.47
2022-10-02T18:58:58.955Z,88.14
2022-10-02T19:04:11.723Z,88.57
2022-10-02T19:09:21.457Z,88.77
2022-10-02T19:14:26.003Z,88.47
2022-10-02T19:19:29.264Z,89.03
2022-10-02T19:24:35.051Z,89.23
2022-10-02T19:29:57.844Z,89.98
2022-10-02T19:35:01.583Z,89.90
2022-10-02T19:40:04.017Z,90.13
2022-10-02T19:45:25.495Z,91.29
2022-10-02T19:50:37.815Z,91.54
2022-10-02T19:55:46.448Z,91.83
2022-10-02T20:00:53.101Z,92.70
2022-10-02T20:06:00.981Z,94.13
2022-10-02T20:11:15.432Z,95.46
2022-10-02T20:16:36.655Z,95.71
2022-10-02T20:21:40.955Z,96.50
2022-10-02T20:26:47.345Z,97.02
2022-10-02T20:31:59.655Z,97.99
2022-10-02T20:37:12.038Z,98.31
2022-10-02T20:42:19.985Z,98.63
2022-10-02T20:47:43.505Z,98.45
2022-10-02T20:52:54.465Z,98.19
2022-10-02T20:58:33.345Z,98.80
2022-10-02T21:03:56.703Z,99.41
2022-10-02T21:09:19.560Z,99.35
2022-10-02T21:14:43.472Z,100.00
2022-10-02T21:19:46.249Z,100.00
2022-10-02T21:24:56.842Z,100.00
2022-10-02T21:30:16.373Z,100.00
2022-10-02T21:35:38.951Z,100.00
2022-10-02T21:41:07.225Z,100.00
2022-10-02T21:46:27.104Z,100.00
2022-10-02T21:52:08.757Z,100.00
2022-10-02T21:57:44.529Z,100.00
2022-10-02T22:03:50.502Z,100.00
2022-10-02T22:09:11.563Z,100.00
2022-10-02T22:14:27.992Z,100.00
2022-10-02T22:19:47.719Z,100.00
2022-10-02T22:25:04.442Z,100.00
2022-10-02T22:30:29.536Z,100.00
2022-10-02T22:35:57.800Z,100.00
2022-10-02T22:41:14.698Z,100.00
2022-10-02T22:46:21.215Z,100.00
2022-10-02T22:51:34.567Z,100.00
2022-10-02T22:56:42.902Z,100.00
2022-10-02T23:02:05.484Z,100.00
2022-10-02T23:07:19.011Z,100.00
2022-10-02T23:12:54.846Z,100.00
2022-10-02T23:18:16.476Z,100.00
2022-10-02T23:23:23.260Z,100.00
2022-10-02T23:28:52.060Z,100.00
2022-10-02T23:34:41.289Z,100.00
2022-10-02T23:39:56.946Z,100.00
2022-10-02T23:45:11.062Z,100.00
2022-10-02T23:51:01.954Z,100.00
2022-10-02T23:56:16.831Z,100.00
